Impacts METAR Board INFO
IDs:

KPIT - Pittsburgh Intl, PA, US

Updated at: 0856 UTC 22 Feb 2018
Potential Impact None Slight Moderate High
Time21/20Z 21/21Z 21/22Z 21/23Z 22/00Z 22/01Z 22/02Z 22/03Z 22/04Z 22/05Z 22/06Z 22/07Z 22/08Z
VIS7 10 10 10 10 10 10 10 9 10
CIG6 8 9 10 11 34 36 38 45 55
CoverOVCOVCOVCOVCOVCOVCOVCOVCOVCOVC
FltCatIFRIFRIFRMVFRMVFRVFRVFRVFRVFRVFR
WX-RA-------------RA-RA-RA
WDir34036034035010360303601010
WSpd16 11 11 11 11 8 6 6 6 9
WGst-- -- -- -- -- -- -- -- -- --
Raw hourly METARs
KPIT 211951Z 34016KT 7SM -RA OVC006 10/08 A3036 RMK AO2 DZB14E26RAB26 SLP288 P0000 T01000083
KPIT 212051Z 36011KT 10SM BKN008 OVC013 09/06 A3038 RMK AO2 RAE42 SLP295 P0000 60001 T00890061 53021
KPIT 212151Z 34011KT 10SM BKN009 OVC019 08/05 A3041 RMK AO2 SLP306 T00780050
KPIT 212251Z 35011KT 10SM OVC010 08/04 A3044 RMK AO2 SLP317 T00780044
KPIT 212351Z 01011KT 10SM BKN011 OVC023 07/04 A3047 RMK AO2 SLP325 60001 T00720039 10183 20072 51028



KPIT 220351Z 36008KT 10SM FEW011 BKN034 OVC065 06/03 A3051 RMK AO2 RAB00E38 SLP340 P0000 T00610028
KPIT 220451Z COR 03006KT 10SM OVC036 06/03 A3050 RMK AO2 SLP338 T00610028 402280056
KPIT 220551Z 36006KT 10SM -RA BKN038 OVC065 06/02 A3050 RMK AO2 RAB45 SLP338 P0000 60000 T00610022 10072 20056 55007
KPIT 220651Z 01006KT 9SM -RA BKN045 OVC080 06/03 A3049 RMK AO2 RAE08B29 SLP333 P0002 T00560028
KPIT 220751Z 01009KT 10SM -RA FEW008 OVC055 06/03 A3048 RMK AO2 SLP334 P0001 T00560028